createdAt,value
2022-10-26T00:01:22.070Z,100.00
2022-10-26T00:03:25.876Z,100.00
2022-10-26T00:05:33.931Z,100.00
2022-10-26T00:07:37.793Z,100.00
2022-10-26T00:09:41.380Z,100.00
2022-10-26T00:11:44.881Z,100.00
2022-10-26T00:13:49.178Z,100.00
2022-10-26T00:15:52.802Z,100.00
2022-10-26T00:17:56.810Z,100.00
2022-10-26T00:20:01.056Z,100.00
2022-10-26T00:22:06.558Z,100.00
2022-10-26T00:24:10.785Z,100.00
2022-10-26T00:26:14.640Z,100.00
2022-10-26T00:28:22.910Z,100.00
2022-10-26T00:30:27.048Z,100.00
2022-10-26T00:32:31.075Z,100.00
2022-10-26T00:34:34.791Z,100.00
2022-10-26T00:36:39.086Z,100.00
2022-10-26T00:38:46.391Z,100.00
2022-10-26T00:40:50.544Z,100.00
2022-10-26T00:42:54.253Z,100.00
2022-10-26T00:45:01.958Z,100.00
2022-10-26T00:47:06.899Z,100.00
2022-10-26T00:49:15.006Z,100.00
2022-10-26T00:51:26.267Z,100.00
2022-10-26T00:53:32.003Z,100.00
2022-10-26T00:55:42.018Z,100.00
2022-10-26T00:57:46.181Z,100.00
2022-10-26T00:59:52.577Z,100.00
2022-10-26T01:01:56.349Z,100.00
2022-10-26T01:04:01.298Z,100.00
2022-10-26T01:06:07.382Z,100.00
2022-10-26T01:08:12.707Z,100.00
2022-10-26T01:10:16.697Z,100.00
2022-10-26T01:12:22.063Z,100.00
2022-10-26T01:14:28.930Z,100.00
2022-10-26T01:16:48.912Z,100.00
2022-10-26T01:19:07.290Z,100.00
2022-10-26T01:21:37.925Z,100.00
2022-10-26T01:23:59.473Z,100.00
2022-10-26T01:26:35.582Z,100.00
2022-10-26T01:29:22.163Z,100.00
2022-10-26T01:31:33.470Z,100.00
2022-10-26T01:33:44.516Z,100.00
2022-10-26T01:35:55.110Z,100.00
2022-10-26T01:38:06.802Z,100.00
2022-10-26T01:40:18.367Z,100.00
2022-10-26T01:42:25.602Z,100.00
2022-10-26T01:44:34.549Z,100.00
2022-10-26T01:46:43.912Z,100.00
2022-10-26T01:48:50.531Z,100.00
2022-10-26T01:50:56.555Z,100.00
2022-10-26T01:53:00.875Z,100.00
2022-10-26T01:55:06.063Z,100.00
2022-10-26T01:57:13.251Z,100.00
2022-10-26T01:59:49.115Z,100.00
2022-10-26T02:02:24.031Z,100.00
2022-10-26T02:04:47.715Z,100.00
2022-10-26T02:06:57.627Z,100.00
2022-10-26T02:09:13.687Z,100.00
2022-10-26T02:11:29.497Z,100.00
2022-10-26T02:13:41.284Z,100.00
2022-10-26T02:15:54.885Z,100.00
2022-10-26T02:18:02.876Z,100.00
2022-10-26T02:20:10.187Z,100.00
2022-10-26T02:22:20.612Z,100.00
2022-10-26T02:24:26.738Z,100.00
2022-10-26T02:26:34.583Z,100.00
2022-10-26T02:28:42.676Z,100.00
2022-10-26T02:30:50.402Z,100.00
2022-10-26T02:32:56.591Z,100.00
2022-10-26T02:35:04.328Z,100.00
2022-10-26T02:37:10.179Z,100.00
2022-10-26T02:39:16.430Z,100.00
2022-10-26T02:41:21.802Z,100.00
2022-10-26T02:43:28.408Z,100.00
2022-10-26T02:45:35.873Z,100.00
2022-10-26T02:47:40.236Z,100.00
2022-10-26T02:49:44.962Z,100.00
2022-10-26T02:51:55.375Z,100.00
2022-10-26T02:54:03.626Z,100.00
2022-10-26T02:56:14.193Z,100.00
2022-10-26T02:58:24.012Z,100.00
2022-10-26T03:00:27.958Z,100.00
2022-10-26T03:02:31.643Z,100.00
2022-10-26T03:04:36.694Z,100.00
2022-10-26T03:06:40.485Z,100.00
2022-10-26T03:08:45.558Z,100.00
2022-10-26T03:10:49.223Z,100.00
2022-10-26T03:12:53.924Z,100.00
2022-10-26T03:14:57.681Z,100.00
2022-10-26T03:17:01.540Z,100.00
2022-10-26T03:19:05.914Z,100.00
2022-10-26T03:21:09.734Z,100.00
2022-10-26T03:23:13.978Z,100.00
2022-10-26T03:25:19.521Z,100.00
2022-10-26T03:27:23.220Z,100.00
2022-10-26T03:29:27.183Z,100.00
2022-10-26T03:31:30.844Z,100.00
2022-10-26T03:33:35.004Z,100.00
2022-10-26T03:35:39.673Z,100.00
2022-10-26T03:37:43.691Z,100.00
2022-10-26T03:39:47.407Z,100.00
2022-10-26T03:43:57.976Z,100.00
2022-10-26T03:46:01.664Z,100.00
2022-10-26T03:48:05.845Z,100.00
2022-10-26T03:50:10.699Z,100.00
2022-10-26T03:52:14.483Z,100.00
2022-10-26T03:54:18.715Z,100.00
2022-10-26T03:56:22.500Z,100.00
2022-10-26T03:58:27.946Z,100.00
2022-10-26T04:00:32.146Z,100.00
2022-10-26T04:02:36.000Z,100.00
2022-10-26T04:04:41.470Z,100.00
2022-10-26T04:08:58.399Z,100.00
2022-10-26T04:11:03.912Z,100.00
2022-10-26T04:13:08.134Z,100.00
2022-10-26T04:15:13.371Z,100.00
2022-10-26T04:17:17.135Z,100.00
2022-10-26T04:19:20.948Z,100.00
2022-10-26T04:21:24.953Z,100.00
2022-10-26T04:23:28.391Z,100.00
2022-10-26T04:25:33.828Z,100.00
2022-10-26T04:27:37.606Z,100.00
2022-10-26T04:29:41.072Z,100.00
2022-10-26T04:31:46.228Z,100.00
2022-10-26T04:33:49.869Z,100.00
2022-10-26T04:35:53.438Z,100.00
2022-10-26T04:37:59.690Z,100.00
2022-10-26T04:40:03.215Z,100.00
2022-10-26T04:42:15.913Z,100.00
2022-10-26T04:44:19.400Z,100.00
2022-10-26T04:46:30.787Z,100.00
2022-10-26T04:48:35.787Z,100.00
2022-10-26T04:50:40.117Z,100.00
2022-10-26T04:52:43.857Z,100.00
2022-10-26T04:54:51.300Z,100.00
2022-10-26T04:56:54.974Z,100.00
2022-10-26T04:58:58.573Z,100.00
2022-10-26T05:01:03.461Z,100.00
2022-10-26T05:03:08.971Z,100.00
2022-10-26T05:05:15.099Z,100.00
2022-10-26T05:07:18.739Z,100.00
2022-10-26T05:09:22.182Z,100.00
2022-10-26T05:11:25.638Z,100.00
2022-10-26T05:13:29.147Z,100.00
2022-10-26T05:15:33.205Z,100.00
2022-10-26T05:17:39.959Z,100.00
2022-10-26T05:19:43.512Z,100.00
2022-10-26T05:21:48.439Z,100.00
2022-10-26T05:23:55.745Z,100.00
2022-10-26T05:26:09.531Z,100.00
2022-10-26T05:28:14.486Z,100.00
2022-10-26T05:30:19.683Z,100.00
2022-10-26T05:32:23.256Z,100.00
2022-10-26T05:34:28.870Z,100.00
2022-10-26T05:36:32.449Z,100.00
2022-10-26T05:38:38.081Z,100.00
2022-10-26T05:40:48.464Z,100.00
2022-10-26T05:42:52.441Z,100.00
2022-10-26T05:44:55.839Z,100.00
2022-10-26T05:47:02.508Z,100.00
2022-10-26T05:49:09.212Z,100.00
2022-10-26T05:51:12.765Z,100.00
2022-10-26T05:53:16.000Z,100.00
2022-10-26T05:55:22.009Z,100.00
2022-10-26T05:57:25.894Z,100.00
2022-10-26T05:59:29.702Z,100.00
2022-10-26T06:01:45.523Z,100.00
2022-10-26T06:04:03.478Z,100.00
2022-10-26T06:06:09.408Z,100.00
2022-10-26T06:08:13.290Z,100.00
2022-10-26T06:10:17.232Z,100.00
2022-10-26T06:12:22.770Z,100.00
2022-10-26T06:14:26.705Z,100.00
2022-10-26T06:16:37.714Z,100.00
2022-10-26T06:18:48.907Z,100.00
2022-10-26T06:21:03.783Z,100.00
2022-10-26T06:23:22.103Z,100.00
2022-10-26T06:25:32.991Z,100.00
2022-10-26T06:27:53.571Z,99.94
2022-10-26T06:30:02.087Z,100.00
2022-10-26T06:32:05.685Z,100.00
2022-10-26T06:34:13.750Z,100.00
2022-10-26T06:36:23.937Z,100.00
2022-10-26T06:38:31.342Z,99.59
2022-10-26T06:40:38.028Z,100.00
2022-10-26T06:42:43.569Z,99.55
2022-10-26T06:44:47.689Z,99.84
2022-10-26T06:46:58.072Z,99.54
2022-10-26T06:49:09.306Z,98.87
2022-10-26T06:51:16.971Z,98.66
2022-10-26T06:53:28.789Z,99.63
2022-10-26T06:55:47.176Z,99.12
2022-10-26T06:57:52.688Z,99.32
2022-10-26T07:00:09.319Z,99.44
2022-10-26T07:02:14.670Z,99.72
2022-10-26T07:04:18.333Z,99.65
2022-10-26T07:06:21.755Z,100.00
2022-10-26T07:08:25.532Z,100.00
2022-10-26T07:10:28.798Z,100.00
2022-10-26T07:12:33.100Z,100.00
2022-10-26T07:14:37.931Z,100.00
2022-10-26T07:16:41.237Z,100.00
2022-10-26T07:18:44.824Z,100.00
2022-10-26T07:20:48.161Z,100.00
2022-10-26T07:22:54.777Z,100.00
2022-10-26T07:25:00.596Z,100.00
2022-10-26T07:27:06.478Z,100.00
2022-10-26T07:29:09.869Z,100.00
2022-10-26T07:31:14.603Z,100.00
2022-10-26T07:33:18.103Z,100.00
2022-10-26T07:35:21.430Z,100.00
2022-10-26T07:37:25.084Z,100.00
2022-10-26T07:39:28.381Z,100.00
2022-10-26T07:41:31.668Z,100.00
2022-10-26T07:43:34.978Z,100.00
2022-10-26T07:45:38.405Z,100.00
2022-10-26T07:47:43.081Z,100.00
2022-10-26T07:49:46.394Z,100.00
2022-10-26T07:51:49.686Z,100.00
2022-10-26T07:53:52.996Z,100.00
2022-10-26T07:55:56.988Z,100.00
2022-10-26T07:58:00.864Z,100.00
2022-10-26T08:00:06.917Z,100.00
2022-10-26T08:02:11.690Z,100.00
2022-10-26T08:04:17.143Z,100.00
2022-10-26T08:06:21.015Z,100.00
2022-10-26T08:08:25.089Z,100.00
2022-10-26T08:10:28.849Z,100.00
2022-10-26T08:12:32.640Z,99.80
2022-10-26T08:14:36.204Z,98.45
2022-10-26T08:16:40.831Z,98.63
2022-10-26T08:18:44.254Z,98.40
2022-10-26T08:20:49.409Z,98.58
2022-10-26T08:22:53.119Z,98.82
2022-10-26T08:24:56.737Z,98.36
2022-10-26T08:27:00.282Z,97.66
2022-10-26T08:29:03.985Z,97.11
2022-10-26T08:31:08.492Z,96.62
2022-10-26T08:33:12.877Z,96.27
2022-10-26T08:35:16.741Z,96.49
2022-10-26T08:37:23.248Z,96.30
2022-10-26T08:39:28.762Z,96.36
2022-10-26T08:41:42.716Z,95.46
2022-10-26T08:43:53.468Z,94.50
2022-10-26T08:46:01.463Z,95.05
2022-10-26T08:48:12.041Z,94.84
2022-10-26T08:50:26.288Z,94.64
2022-10-26T08:52:38.625Z,94.34
2022-10-26T08:54:46.842Z,94.07
2022-10-26T08:56:54.362Z,93.86
2022-10-26T08:59:00.643Z,93.39
2022-10-26T09:01:05.619Z,91.66
2022-10-26T09:03:18.140Z,91.75
2022-10-26T09:05:37.269Z,91.17
2022-10-26T09:07:52.259Z,91.30
2022-10-26T09:10:04.869Z,90.10
2022-10-26T09:12:18.860Z,89.04
2022-10-26T09:14:30.144Z,89.37
2022-10-26T09:16:42.623Z,87.97
2022-10-26T09:18:58.968Z,88.29
2022-10-26T09:21:18.230Z,88.39
2022-10-26T09:23:33.749Z,87.43
2022-10-26T09:25:41.013Z,86.37
2022-10-26T09:27:48.896Z,86.57
2022-10-26T09:29:54.031Z,86.79
2022-10-26T09:32:01.519Z,87.04
2022-10-26T09:34:08.639Z,85.63
2022-10-26T09:36:16.951Z,85.94
2022-10-26T09:38:29.356Z,85.43
2022-10-26T09:40:37.863Z,85.11
2022-10-26T09:42:45.097Z,85.27
2022-10-26T09:44:55.122Z,85.48
2022-10-26T09:47:04.555Z,84.53
2022-10-26T09:49:12.578Z,84.13
2022-10-26T09:51:17.450Z,84.69
2022-10-26T09:53:21.193Z,83.80
2022-10-26T09:55:27.822Z,82.95
2022-10-26T09:57:31.672Z,82.10
2022-10-26T09:59:40.578Z,83.09
2022-10-26T10:01:44.218Z,82.68
2022-10-26T10:03:48.234Z,82.32
2022-10-26T10:05:52.927Z,82.76
2022-10-26T10:08:13.278Z,82.66
2022-10-26T10:10:19.210Z,82.70
2022-10-26T10:12:24.396Z,82.07
2022-10-26T10:14:29.639Z,81.45
2022-10-26T10:16:33.210Z,81.27
2022-10-26T10:18:38.581Z,80.95
2022-10-26T10:20:42.230Z,80.57
2022-10-26T10:22:56.231Z,79.68
2022-10-26T10:25:01.465Z,80.45
2022-10-26T10:27:07.779Z,78.54
2022-10-26T10:29:18.244Z,77.26
2022-10-26T10:31:23.829Z,78.66
2022-10-26T10:33:35.984Z,78.86
2022-10-26T10:35:41.607Z,78.91
2022-10-26T10:37:47.095Z,78.21
2022-10-26T10:39:50.908Z,77.48
2022-10-26T10:41:54.668Z,76.37
2022-10-26T10:44:04.300Z,75.65
2022-10-26T10:46:09.338Z,76.46
2022-10-26T10:48:18.058Z,76.46
2022-10-26T10:50:22.370Z,76.20
2022-10-26T10:52:31.807Z,75.31
2022-10-26T10:54:38.119Z,75.52
2022-10-26T10:56:45.609Z,76.44
2022-10-26T10:59:01.062Z,75.96
2022-10-26T11:01:05.213Z,76.04
2022-10-26T11:03:31.832Z,76.97
2022-10-26T11:05:48.237Z,76.66
2022-10-26T11:07:58.214Z,77.62
2022-10-26T11:10:05.517Z,77.42
2022-10-26T11:12:15.310Z,77.57
2022-10-26T11:14:24.065Z,77.61
2022-10-26T11:16:31.598Z,77.50
2022-10-26T11:18:43.174Z,77.21
2022-10-26T11:20:52.638Z,76.61
2022-10-26T11:23:06.558Z,77.42
2022-10-26T11:25:18.395Z,77.09
2022-10-26T11:27:27.523Z,77.17
2022-10-26T11:29:39.464Z,76.39
2022-10-26T11:31:51.887Z,75.90
2022-10-26T11:34:16.469Z,75.38
2022-10-26T11:36:25.770Z,75.20
2022-10-26T11:38:46.325Z,75.06
2022-10-26T11:41:05.417Z,73.90
2022-10-26T11:43:16.396Z,74.37
2022-10-26T11:45:26.883Z,73.69
2022-10-26T11:47:36.892Z,74.98
2022-10-26T11:49:48.189Z,77.14
2022-10-26T11:51:56.973Z,79.20
2022-10-26T11:54:07.076Z,81.22
2022-10-26T11:56:16.260Z,82.20
2022-10-26T11:58:21.156Z,83.44
2022-10-26T12:00:25.031Z,84.16
2022-10-26T12:02:28.973Z,84.68
2022-10-26T12:04:37.422Z,85.03
2022-10-26T12:06:42.704Z,85.13
2022-10-26T12:08:52.552Z,85.34
2022-10-26T12:11:04.378Z,83.95
2022-10-26T12:13:20.919Z,84.01
2022-10-26T12:15:40.165Z,83.88
2022-10-26T12:18:00.940Z,83.61
2022-10-26T12:20:15.018Z,82.88
2022-10-26T12:22:27.735Z,82.09
2022-10-26T12:24:35.603Z,82.61
2022-10-26T12:26:41.021Z,82.09
2022-10-26T12:28:44.476Z,81.51
2022-10-26T12:30:48.233Z,80.23
2022-10-26T12:32:54.904Z,79.04
2022-10-26T12:35:04.303Z,77.73
2022-10-26T12:37:30.551Z,77.74
2022-10-26T12:39:35.834Z,77.65
2022-10-26T12:41:40.312Z,77.56
2022-10-26T12:46:09.248Z,77.21
2022-10-26T12:48:39.017Z,76.93
2022-10-26T12:50:43.408Z,77.08
2022-10-26T12:52:53.271Z,76.14
2022-10-26T12:55:33.584Z,75.53
2022-10-26T12:57:46.852Z,75.69
2022-10-26T12:59:52.704Z,75.12
2022-10-26T13:02:29.796Z,75.19
2022-10-26T13:05:07.781Z,74.21
2022-10-26T13:07:23.697Z,72.79
2022-10-26T13:09:33.294Z,74.09
2022-10-26T13:11:41.607Z,73.75
2022-10-26T13:13:46.737Z,73.57
2022-10-26T13:15:55.921Z,73.91
2022-10-26T13:18:09.146Z,74.05
2022-10-26T13:20:19.339Z,74.48
2022-10-26T13:22:24.638Z,74.89
2022-10-26T13:24:32.786Z,75.38
2022-10-26T13:27:14.299Z,75.86
2022-10-26T13:29:18.078Z,76.12
2022-10-26T13:31:56.192Z,76.42
2022-10-26T13:34:03.027Z,75.93
2022-10-26T13:36:19.270Z,77.00
2022-10-26T13:38:26.951Z,76.95
2022-10-26T13:40:32.488Z,76.62
2022-10-26T13:42:52.152Z,76.94
2022-10-26T13:45:01.524Z,76.75
2022-10-26T13:47:12.358Z,76.07
2022-10-26T13:49:22.458Z,76.67
2022-10-26T13:51:32.037Z,76.70
2022-10-26T13:53:41.609Z,76.58
2022-10-26T13:55:53.535Z,75.90
2022-10-26T13:58:17.085Z,75.75
2022-10-26T14:00:23.406Z,76.15
2022-10-26T14:02:31.070Z,76.01
2022-10-26T14:04:37.757Z,75.54
2022-10-26T14:06:44.263Z,75.77
2022-10-26T14:08:51.114Z,75.00
2022-10-26T14:10:59.431Z,75.04
2022-10-26T14:13:08.652Z,75.22
2022-10-26T14:15:15.686Z,74.87
2022-10-26T14:17:22.240Z,74.73
2022-10-26T14:19:33.536Z,74.83
2022-10-26T14:21:43.732Z,74.77
2022-10-26T14:23:50.560Z,75.82
2022-10-26T14:25:59.135Z,76.48
2022-10-26T14:28:05.051Z,75.82
2022-10-26T14:30:24.085Z,76.60
2022-10-26T14:32:29.988Z,77.64
2022-10-26T14:34:34.633Z,79.28
2022-10-26T14:36:43.320Z,79.92
2022-10-26T14:38:49.311Z,81.78
2022-10-26T14:40:54.366Z,83.49
2022-10-26T14:43:01.679Z,83.92
2022-10-26T14:45:07.589Z,84.68
2022-10-26T14:47:24.911Z,84.82
2022-10-26T14:49:30.639Z,85.11
2022-10-26T14:51:37.863Z,85.59
2022-10-26T14:53:43.220Z,85.87
2022-10-26T14:55:49.851Z,87.10
2022-10-26T14:58:08.159Z,87.77
2022-10-26T15:00:19.267Z,89.53
2022-10-26T15:02:26.525Z,91.07
2022-10-26T15:04:33.943Z,92.64
2022-10-26T15:06:43.443Z,95.39
2022-10-26T15:08:56.878Z,96.14
2022-10-26T15:11:09.603Z,96.58
2022-10-26T15:13:25.078Z,97.99
2022-10-26T15:15:30.900Z,99.00
2022-10-26T15:17:39.694Z,99.70
2022-10-26T15:19:47.091Z,100.00
2022-10-26T15:21:52.030Z,100.00
2022-10-26T15:23:57.995Z,100.00
2022-10-26T15:26:03.793Z,100.00
2022-10-26T15:28:14.056Z,100.00
2022-10-26T15:30:25.337Z,100.00
2022-10-26T15:32:33.788Z,100.00
2022-10-26T15:34:37.378Z,100.00
2022-10-26T15:36:42.485Z,99.35
2022-10-26T15:38:48.541Z,97.89
2022-10-26T15:40:53.011Z,98.11
2022-10-26T15:42:59.919Z,97.43
2022-10-26T15:45:04.531Z,97.03
2022-10-26T15:47:18.039Z,95.00
2022-10-26T15:49:23.628Z,94.33
2022-10-26T15:51:28.927Z,93.56
2022-10-26T15:53:33.449Z,92.14
2022-10-26T15:55:37.804Z,92.62
2022-10-26T15:57:41.747Z,91.30
2022-10-26T15:59:45.701Z,91.51
2022-10-26T16:01:52.364Z,91.31
2022-10-26T16:03:56.981Z,90.65
2022-10-26T16:06:04.475Z,89.84
2022-10-26T16:08:12.684Z,90.13
2022-10-26T16:10:22.072Z,90.33
2022-10-26T16:12:26.418Z,89.77
2022-10-26T16:14:33.493Z,90.48
2022-10-26T16:16:41.815Z,90.24
2022-10-26T16:18:46.821Z,89.68
2022-10-26T16:20:50.840Z,89.71
2022-10-26T16:22:59.988Z,89.84
2022-10-26T16:25:03.970Z,88.79
2022-10-26T16:27:07.869Z,88.85
2022-10-26T16:29:11.711Z,89.36
2022-10-26T16:31:18.863Z,89.18
2022-10-26T16:33:22.791Z,89.30
2022-10-26T16:35:26.682Z,88.70
2022-10-26T16:37:31.709Z,89.22
2022-10-26T16:39:36.933Z,88.58
2022-10-26T16:41:40.613Z,89.20
2022-10-26T16:43:47.125Z,89.08
2022-10-26T16:45:51.158Z,88.93
2022-10-26T16:47:55.527Z,88.69
2022-10-26T16:49:59.551Z,88.56
2022-10-26T16:52:04.587Z,89.33
2022-10-26T16:54:08.322Z,89.22
2022-10-26T16:56:15.446Z,88.71
2022-10-26T16:58:19.174Z,88.75
2022-10-26T17:00:23.030Z,89.36
2022-10-26T17:02:27.051Z,89.46
2022-10-26T17:04:30.854Z,89.72
2022-10-26T17:06:34.675Z,89.95
2022-10-26T17:08:38.857Z,89.92
2022-10-26T17:10:42.537Z,89.84
2022-10-26T17:12:47.701Z,90.03
2022-10-26T17:14:51.676Z,89.88
2022-10-26T17:16:55.102Z,89.93
2022-10-26T17:18:58.793Z,90.72
2022-10-26T17:21:02.493Z,89.77
2022-10-26T17:23:06.522Z,90.47
2022-10-26T17:25:10.483Z,91.05
2022-10-26T17:27:14.028Z,90.52
2022-10-26T17:29:28.701Z,90.14
2022-10-26T17:31:34.768Z,90.40
2022-10-26T17:33:44.029Z,90.82
2022-10-26T17:35:47.585Z,90.74
2022-10-26T17:37:51.661Z,90.72
2022-10-26T17:39:55.944Z,90.55
2022-10-26T17:41:59.643Z,90.49
2022-10-26T17:44:03.640Z,90.21
2022-10-26T17:46:12.247Z,90.25
2022-10-26T17:48:15.799Z,90.46
2022-10-26T17:50:19.856Z,89.91
2022-10-26T17:52:24.827Z,90.37
2022-10-26T17:54:29.254Z,89.75
2022-10-26T17:56:34.676Z,89.63
2022-10-26T17:58:38.719Z,90.15
2022-10-26T18:00:44.697Z,89.70
2022-10-26T18:02:51.995Z,89.39
2022-10-26T18:04:55.542Z,89.63
2022-10-26T18:06:59.245Z,89.52
2022-10-26T18:09:02.748Z,88.89
2022-10-26T18:11:07.370Z,89.82
2022-10-26T18:13:10.961Z,89.72
2022-10-26T18:15:14.770Z,89.68
2022-10-26T18:17:18.366Z,89.61
2022-10-26T18:19:24.003Z,89.58
2022-10-26T18:21:33.973Z,89.34
2022-10-26T18:23:37.782Z,89.72
2022-10-26T18:25:41.398Z,89.19
2022-10-26T18:27:45.083Z,88.65
2022-10-26T18:29:48.779Z,89.20
2022-10-26T18:31:52.512Z,89.51
2022-10-26T18:33:57.524Z,89.89
2022-10-26T18:36:08.836Z,90.08
2022-10-26T18:38:12.307Z,90.91
2022-10-26T18:40:17.248Z,90.65
2022-10-26T18:42:22.893Z,91.62
2022-10-26T18:44:26.856Z,91.86
2022-10-26T18:46:33.543Z,91.79
2022-10-26T18:48:38.873Z,92.10
2022-10-26T18:50:42.789Z,92.92
2022-10-26T18:52:48.144Z,92.30
2022-10-26T18:54:51.743Z,92.67
2022-10-26T18:56:55.456Z,92.57
2022-10-26T18:59:00.803Z,93.03
2022-10-26T19:01:09.974Z,93.29
2022-10-26T19:03:13.830Z,93.01
2022-10-26T19:05:17.679Z,93.09
2022-10-26T19:07:22.800Z,93.02
2022-10-26T19:09:28.292Z,93.01
2022-10-26T19:11:32.607Z,93.31
2022-10-26T19:13:36.590Z,93.90
2022-10-26T19:15:40.157Z,93.48
2022-10-26T19:17:43.836Z,93.33
2022-10-26T19:19:47.787Z,93.81
2022-10-26T19:21:51.759Z,93.71
2022-10-26T19:23:56.688Z,93.28
2022-10-26T19:26:01.960Z,93.53
2022-10-26T19:28:05.894Z,93.19
2022-10-26T19:30:10.961Z,93.49
2022-10-26T19:32:15.262Z,93.62
2022-10-26T19:34:21.119Z,93.72
2022-10-26T19:36:24.998Z,93.39
2022-10-26T19:38:28.931Z,93.08
2022-10-26T19:40:32.603Z,93.36
2022-10-26T19:42:37.751Z,93.82
2022-10-26T19:44:41.223Z,94.06
2022-10-26T19:46:44.954Z,93.88
2022-10-26T19:48:51.082Z,94.22
2022-10-26T19:50:56.839Z,93.95
2022-10-26T19:53:02.246Z,94.18
2022-10-26T19:55:06.396Z,94.13
2022-10-26T19:57:10.019Z,94.04
2022-10-26T19:59:15.428Z,94.26
2022-10-26T20:01:20.336Z,94.76
2022-10-26T20:03:24.077Z,95.20
2022-10-26T20:05:27.972Z,94.75
2022-10-26T20:07:32.270Z,94.67
2022-10-26T20:09:35.816Z,94.61
2022-10-26T20:11:43.193Z,94.58
2022-10-26T20:13:49.393Z,94.68
2022-10-26T20:15:54.700Z,94.59
2022-10-26T20:17:58.456Z,94.27
2022-10-26T20:20:02.078Z,94.40
2022-10-26T20:22:06.292Z,93.99
2022-10-26T20:24:10.553Z,93.55
2022-10-26T20:26:18.819Z,93.27
2022-10-26T20:28:23.995Z,94.24
2022-10-26T20:30:27.557Z,93.73
2022-10-26T20:32:32.692Z,94.00
2022-10-26T20:34:36.705Z,94.39
2022-10-26T20:36:41.697Z,93.84
2022-10-26T20:38:46.558Z,93.88
2022-10-26T20:40:56.345Z,93.95
2022-10-26T20:43:00.689Z,94.61
2022-10-26T20:45:10.465Z,94.57
2022-10-26T20:47:14.824Z,94.36
2022-10-26T20:49:20.567Z,94.24
2022-10-26T20:51:38.544Z,94.65
2022-10-26T20:53:48.045Z,94.54
2022-10-26T20:55:56.070Z,94.48
2022-10-26T20:58:03.808Z,94.49
2022-10-26T21:00:12.266Z,94.49
2022-10-26T21:02:16.090Z,95.10
2022-10-26T21:04:21.098Z,94.92
2022-10-26T21:06:25.291Z,94.47
2022-10-26T21:08:29.041Z,95.07
2022-10-26T21:10:33.025Z,94.20
2022-10-26T21:12:37.633Z,94.47
2022-10-26T21:14:41.552Z,94.31
2022-10-26T21:16:45.291Z,94.74
2022-10-26T21:18:49.032Z,93.71
2022-10-26T21:20:54.089Z,93.71
2022-10-26T21:22:58.017Z,94.09
2022-10-26T21:25:01.711Z,92.48
2022-10-26T21:27:05.513Z,93.08
2022-10-26T21:29:09.605Z,93.51
2022-10-26T21:31:14.844Z,93.20
2022-10-26T21:33:21.305Z,93.72
2022-10-26T21:35:27.811Z,93.71
2022-10-26T21:37:32.822Z,93.86
2022-10-26T21:39:36.529Z,93.76
2022-10-26T21:41:40.197Z,93.71
2022-10-26T21:43:46.252Z,94.10
2022-10-26T21:45:49.897Z,94.29
2022-10-26T21:47:54.717Z,93.57
2022-10-26T21:49:58.997Z,93.73
2022-10-26T21:52:03.568Z,94.59
2022-10-26T21:54:09.226Z,94.10
2022-10-26T21:56:17.484Z,93.86
2022-10-26T21:58:21.495Z,94.36
2022-10-26T22:00:24.991Z,94.07
2022-10-26T22:02:28.885Z,94.69
2022-10-26T22:04:32.534Z,94.70
2022-10-26T22:06:36.034Z,94.22
2022-10-26T22:08:39.566Z,94.54
2022-10-26T22:10:44.700Z,95.23
2022-10-26T22:12:48.160Z,94.57
2022-10-26T22:14:51.741Z,95.17
2022-10-26T22:16:55.428Z,95.44
2022-10-26T22:19:03.459Z,96.42
2022-10-26T22:21:08.206Z,96.35
2022-10-26T22:23:11.916Z,96.87
2022-10-26T22:25:15.576Z,97.08
2022-10-26T22:27:20.919Z,97.13
2022-10-26T22:29:24.380Z,97.71
2022-10-26T22:33:35.021Z,97.99
2022-10-26T22:35:38.699Z,98.41
2022-10-26T22:37:45.442Z,98.14
2022-10-26T22:39:49.124Z,98.81
2022-10-26T22:41:52.712Z,98.75
2022-10-26T22:43:57.730Z,99.06
2022-10-26T22:46:03.004Z,99.60
2022-10-26T22:48:09.809Z,99.88
2022-10-26T22:50:13.345Z,99.71
2022-10-26T22:52:17.137Z,100.00
2022-10-26T22:54:21.394Z,100.00
2022-10-26T22:58:30.972Z,100.00
2022-10-26T23:00:37.916Z,100.00
2022-10-26T23:02:41.507Z,100.00
2022-10-26T23:04:45.219Z,100.00
2022-10-26T23:06:48.701Z,100.00
2022-10-26T23:08:52.338Z,100.00
2022-10-26T23:11:00.023Z,100.00
2022-10-26T23:15:12.613Z,100.00
2022-10-26T23:17:17.726Z,100.00
2022-10-26T23:19:21.164Z,100.00
2022-10-26T23:23:31.145Z,100.00
2022-10-26T23:25:34.784Z,100.00
2022-10-26T23:27:38.482Z,100.00
2022-10-26T23:29:42.116Z,100.00
2022-10-26T23:31:46.022Z,100.00
2022-10-26T23:33:52.776Z,100.00
2022-10-26T23:35:56.383Z,100.00
2022-10-26T23:38:00.037Z,100.00
2022-10-26T23:40:03.688Z,100.00
2022-10-26T23:42:07.402Z,100.00
2022-10-26T23:44:11.166Z,100.00
2022-10-26T23:46:14.934Z,100.00
2022-10-26T23:48:19.474Z,100.00
2022-10-26T23:50:24.518Z,100.00
2022-10-26T23:52:28.159Z,100.00
2022-10-26T23:54:31.555Z,100.00
2022-10-26T23:56:35.332Z,100.00
2022-10-26T23:58:38.912Z,99.96
